Oud-Loosdrecht, Netherlands
Current Conditions -  °F | °C
As of 12:55 PM on Friday 19 Dec 2014 (Local Time) from EHAM Reporting Station
Few Clouds Few Clouds  
Wind Chill: 41°   Ceiling: Unl
Heat Index: 48°   Visibility: 6mi
Dew Point: 37°   Wind: 20mph
Humidity: 66%   Direction: 290°WNW
Pressure: 29.83"   Gusts: NA
Location:  52.21°N, 5.08°E
Report Text: EHAM 191155Z 29017KT 9999 FEW022 09/03 Q1010 NOSIG
Loading
Personal Weather Stations






























Interactive Weather Map New forecast layout! Learn more

10-Day Weather Forecast

Advertisements
Track Severe Weather on mobile